sensor_id;sensor_type;location;lat;lon;timestamp;P1;durP1;ratioP1;P2;durP2;ratioP2
41927;SDS011;27616;51.420;6.788;2022-11-25T00:00:52;14.30;;;2.93;;
41927;SDS011;27616;51.420;6.788;2022-11-25T00:03:18;9.63;;;2.30;;
41927;SDS011;27616;51.420;6.788;2022-11-25T00:05:44;10.83;;;2.17;;
41927;SDS011;27616;51.420;6.788;2022-11-25T00:08:09;14.83;;;2.60;;
41927;SDS011;27616;51.420;6.788;2022-11-25T00:10:35;13.73;;;2.30;;
41927;SDS011;27616;51.420;6.788;2022-11-25T00:13:01;8.63;;;2.00;;
41927;SDS011;27616;51.420;6.788;2022-11-25T00:15:27;16.00;;;2.73;;
41927;SDS011;27616;51.420;6.788;2022-11-25T00:17:53;17.47;;;2.13;;
41927;SDS011;27616;51.420;6.788;2022-11-25T00:20:19;13.17;;;2.67;;
41927;SDS011;27616;51.420;6.788;2022-11-25T00:22:45;11.30;;;2.10;;
41927;SDS011;27616;51.420;6.788;2022-11-25T00:25:11;14.90;;;2.57;;
41927;SDS011;27616;51.420;6.788;2022-11-25T00:27:37;9.87;;;2.60;;
41927;SDS011;27616;51.420;6.788;2022-11-25T00:30:03;9.07;;;1.60;;
41927;SDS011;27616;51.420;6.788;2022-11-25T00:32:29;12.33;;;2.67;;
41927;SDS011;27616;51.420;6.788;2022-11-25T00:34:55;13.23;;;2.20;;
41927;SDS011;27616;51.420;6.788;2022-11-25T00:37:20;11.17;;;2.13;;
41927;SDS011;27616;51.420;6.788;2022-11-25T00:39:46;10.87;;;2.50;;
41927;SDS011;27616;51.420;6.788;2022-11-25T00:42:12;14.50;;;3.37;;
41927;SDS011;27616;51.420;6.788;2022-11-25T00:44:56;16.27;;;1.97;;
41927;SDS011;27616;51.420;6.788;2022-11-25T00:47:22;13.80;;;2.20;;
41927;SDS011;27616;51.420;6.788;2022-11-25T00:49:50;10.27;;;1.77;;
41927;SDS011;27616;51.420;6.788;2022-11-25T00:52:24;12.93;;;2.95;;
41927;SDS011;27616;51.420;6.788;2022-11-25T00:54:51;10.20;;;2.00;;
41927;SDS011;27616;51.420;6.788;2022-11-25T00:57:18;12.47;;;2.30;;
41927;SDS011;27616;51.420;6.788;2022-11-25T00:59:46;12.17;;;1.90;;
41927;SDS011;27616;51.420;6.788;2022-11-25T01:02:13;10.10;;;1.97;;
41927;SDS011;27616;51.420;6.788;2022-11-25T01:04:42;14.47;;;2.60;;
41927;SDS011;27616;51.420;6.788;2022-11-25T01:07:08;12.90;;;2.43;;
41927;SDS011;27616;51.420;6.788;2022-11-25T01:09:33;10.07;;;1.80;;
41927;SDS011;27616;51.420;6.788;2022-11-25T01:12:02;13.13;;;2.80;;
41927;SDS011;27616;51.420;6.788;2022-11-25T01:14:29;11.80;;;2.83;;
41927;SDS011;27616;51.420;6.788;2022-11-25T01:16:55;8.27;;;1.70;;
41927;SDS011;27616;51.420;6.788;2022-11-25T01:19:21;14.07;;;2.43;;
41927;SDS011;27616;51.420;6.788;2022-11-25T01:21:48;13.37;;;2.47;;
41927;SDS011;27616;51.420;6.788;2022-11-25T01:24:14;9.73;;;2.23;;
41927;SDS011;27616;51.420;6.788;2022-11-25T01:26:41;9.10;;;1.97;;
41927;SDS011;27616;51.420;6.788;2022-11-25T01:29:12;11.87;;;2.30;;
41927;SDS011;27616;51.420;6.788;2022-11-25T01:31:39;10.90;;;2.13;;
41927;SDS011;27616;51.420;6.788;2022-11-25T01:34:06;13.80;;;1.87;;
41927;SDS011;27616;51.420;6.788;2022-11-25T01:36:37;11.37;;;1.93;;
41927;SDS011;27616;51.420;6.788;2022-11-25T01:39:03;13.53;;;2.00;;
41927;SDS011;27616;51.420;6.788;2022-11-25T01:41:30;12.90;;;2.17;;
41927;SDS011;27616;51.420;6.788;2022-11-25T01:44:39;11.30;;;2.17;;
41927;SDS011;27616;51.420;6.788;2022-11-25T01:54:56;14.02;;;2.78;;
41927;SDS011;27616;51.420;6.788;2022-11-25T01:57:30;8.43;;;2.33;;
41927;SDS011;27616;51.420;6.788;2022-11-25T02:00:01;12.87;;;2.17;;
41927;SDS011;27616;51.420;6.788;2022-11-25T02:02:42;8.90;;;2.13;;
41927;SDS011;27616;51.420;6.788;2022-11-25T02:05:09;11.27;;;1.97;;
41927;SDS011;27616;51.420;6.788;2022-11-25T02:07:40;15.50;;;2.60;;
41927;SDS011;27616;51.420;6.788;2022-11-25T02:10:21;13.30;;;2.53;;
41927;SDS011;27616;51.420;6.788;2022-11-25T02:12:52;9.57;;;2.10;;
41927;SDS011;27616;51.420;6.788;2022-11-25T02:15:20;12.40;;;2.33;;
41927;SDS011;27616;51.420;6.788;2022-11-25T02:17:46;14.90;;;2.27;;
41927;SDS011;27616;51.420;6.788;2022-11-25T02:20:17;8.73;;;2.10;;
41927;SDS011;27616;51.420;6.788;2022-11-25T02:25:37;9.13;;;1.93;;
41927;SDS011;27616;51.420;6.788;2022-11-25T02:28:14;6.80;;;1.47;;
41927;SDS011;27616;51.420;6.788;2022-11-25T02:30:45;8.90;;;1.80;;
41927;SDS011;27616;51.420;6.788;2022-11-25T02:33:11;10.90;;;2.00;;
41927;SDS011;27616;51.420;6.788;2022-11-25T02:35:39;12.30;;;2.70;;
41927;SDS011;27616;51.420;6.788;2022-11-25T02:43:20;10.97;;;2.37;;
41927;SDS011;27616;51.420;6.788;2022-11-25T02:45:48;10.87;;;1.90;;
41927;SDS011;27616;51.420;6.788;2022-11-25T02:48:27;11.57;;;2.13;;
41927;SDS011;27616;51.420;6.788;2022-11-25T02:50:55;13.70;;;1.83;;
41927;SDS011;27616;51.420;6.788;2022-11-25T02:53:21;7.03;;;1.90;;
41927;SDS011;27616;51.420;6.788;2022-11-25T02:55:47;12.90;;;2.53;;
41927;SDS011;27616;51.420;6.788;2022-11-25T02:58:13;10.00;;;2.40;;
41927;SDS011;27616;51.420;6.788;2022-11-25T03:00:40;12.53;;;2.00;;
41927;SDS011;27616;51.420;6.788;2022-11-25T03:03:07;7.47;;;2.40;;
41927;SDS011;27616;51.420;6.788;2022-11-25T03:05:33;9.23;;;1.93;;
41927;SDS011;27616;51.420;6.788;2022-11-25T03:07:59;13.67;;;2.67;;
41927;SDS011;27616;51.420;6.788;2022-11-25T03:10:26;11.27;;;2.47;;
41927;SDS011;27616;51.420;6.788;2022-11-25T03:12:52;16.53;;;3.30;;
41927;SDS011;27616;51.420;6.788;2022-11-25T03:15:18;12.20;;;2.70;;
41927;SDS011;27616;51.420;6.788;2022-11-25T03:17:45;17.93;;;3.20;;
41927;SDS011;27616;51.420;6.788;2022-11-25T03:20:12;14.03;;;2.73;;
41927;SDS011;27616;51.420;6.788;2022-11-25T03:22:40;12.00;;;1.97;;
41927;SDS011;27616;51.420;6.788;2022-11-25T03:25:06;9.20;;;2.10;;
41927;SDS011;27616;51.420;6.788;2022-11-25T03:27:33;12.50;;;2.93;;
41927;SDS011;27616;51.420;6.788;2022-11-25T03:30:01;10.67;;;2.47;;
41927;SDS011;27616;51.420;6.788;2022-11-25T03:32:28;14.70;;;2.87;;
41927;SDS011;27616;51.420;6.788;2022-11-25T03:34:54;14.07;;;2.93;;
41927;SDS011;27616;51.420;6.788;2022-11-25T03:37:20;13.80;;;2.53;;
41927;SDS011;27616;51.420;6.788;2022-11-25T03:39:46;12.07;;;2.83;;
41927;SDS011;27616;51.420;6.788;2022-11-25T03:42:12;10.27;;;2.70;;
41927;SDS011;27616;51.420;6.788;2022-11-25T03:44:38;16.87;;;3.30;;
41927;SDS011;27616;51.420;6.788;2022-11-25T03:47:04;18.03;;;2.80;;
41927;SDS011;27616;51.420;6.788;2022-11-25T03:49:30;8.67;;;2.10;;
41927;SDS011;27616;51.420;6.788;2022-11-25T03:51:56;12.07;;;2.47;;
41927;SDS011;27616;51.420;6.788;2022-11-25T03:54:22;13.70;;;2.80;;
41927;SDS011;27616;51.420;6.788;2022-11-25T03:57:11;12.73;;;2.10;;
41927;SDS011;27616;51.420;6.788;2022-11-25T03:59:37;10.60;;;2.30;;
41927;SDS011;27616;51.420;6.788;2022-11-25T04:02:03;14.20;;;2.53;;
41927;SDS011;27616;51.420;6.788;2022-11-25T04:04:29;16.70;;;2.60;;
41927;SDS011;27616;51.420;6.788;2022-11-25T04:06:55;12.53;;;2.47;;
41927;SDS011;27616;51.420;6.788;2022-11-25T04:09:21;11.67;;;2.57;;
41927;SDS011;27616;51.420;6.788;2022-11-25T04:11:47;12.90;;;2.93;;
41927;SDS011;27616;51.420;6.788;2022-11-25T04:14:42;13.47;;;2.37;;
41927;SDS011;27616;51.420;6.788;2022-11-25T04:17:08;16.17;;;2.53;;
41927;SDS011;27616;51.420;6.788;2022-11-25T04:19:36;12.87;;;2.50;;
41927;SDS011;27616;51.420;6.788;2022-11-25T04:22:02;12.30;;;2.77;;
41927;SDS011;27616;51.420;6.788;2022-11-25T04:24:29;15.53;;;2.70;;
41927;SDS011;27616;51.420;6.788;2022-11-25T04:26:56;11.23;;;2.40;;
41927;SDS011;27616;51.420;6.788;2022-11-25T04:29:21;12.17;;;2.70;;
41927;SDS011;27616;51.420;6.788;2022-11-25T04:31:48;16.43;;;2.80;;
41927;SDS011;27616;51.420;6.788;2022-11-25T04:34:14;12.73;;;2.73;;
41927;SDS011;27616;51.420;6.788;2022-11-25T04:36:40;12.60;;;3.10;;
41927;SDS011;27616;51.420;6.788;2022-11-25T04:39:06;12.17;;;2.60;;
41927;SDS011;27616;51.420;6.788;2022-11-25T04:41:33;9.70;;;2.80;;
41927;SDS011;27616;51.420;6.788;2022-11-25T04:43:59;14.90;;;3.30;;
41927;SDS011;27616;51.420;6.788;2022-11-25T04:46:36;13.93;;;2.70;;
41927;SDS011;27616;51.420;6.788;2022-11-25T04:49:04;10.90;;;2.83;;
41927;SDS011;27616;51.420;6.788;2022-11-25T04:51:30;14.73;;;3.27;;
41927;SDS011;27616;51.420;6.788;2022-11-25T04:56:25;14.57;;;2.83;;
41927;SDS011;27616;51.420;6.788;2022-11-25T04:58:53;15.37;;;3.17;;
41927;SDS011;27616;51.420;6.788;2022-11-25T05:01:41;17.43;;;4.37;;
41927;SDS011;27616;51.420;6.788;2022-11-25T05:04:29;12.13;;;3.00;;
41927;SDS011;27616;51.420;6.788;2022-11-25T05:06:55;13.17;;;2.97;;
41927;SDS011;27616;51.420;6.788;2022-11-25T05:09:23;16.43;;;3.50;;
41927;SDS011;27616;51.420;6.788;2022-11-25T05:11:59;14.20;;;3.77;;
41927;SDS011;27616;51.420;6.788;2022-11-25T05:14:25;22.00;;;3.83;;
41927;SDS011;27616;51.420;6.788;2022-11-25T05:16:51;12.77;;;3.10;;
41927;SDS011;27616;51.420;6.788;2022-11-25T05:19:17;19.17;;;3.33;;
41927;SDS011;27616;51.420;6.788;2022-11-25T05:21:43;19.30;;;3.90;;
41927;SDS011;27616;51.420;6.788;2022-11-25T05:24:10;16.27;;;3.77;;
41927;SDS011;27616;51.420;6.788;2022-11-25T05:26:36;21.73;;;3.90;;
41927;SDS011;27616;51.420;6.788;2022-11-25T05:29:03;17.20;;;3.97;;
41927;SDS011;27616;51.420;6.788;2022-11-25T05:31:31;11.40;;;3.23;;
41927;SDS011;27616;51.420;6.788;2022-11-25T05:33:59;18.57;;;4.03;;
41927;SDS011;27616;51.420;6.788;2022-11-25T05:36:26;12.48;;;3.63;;
41927;SDS011;27616;51.420;6.788;2022-11-25T05:38:52;14.03;;;3.80;;
41927;SDS011;27616;51.420;6.788;2022-11-25T05:41:28;13.57;;;3.43;;
41927;SDS011;27616;51.420;6.788;2022-11-25T05:43:53;17.53;;;3.17;;
41927;SDS011;27616;51.420;6.788;2022-11-25T05:46:20;19.00;;;3.37;;
41927;SDS011;27616;51.420;6.788;2022-11-25T05:48:53;16.37;;;3.63;;
41927;SDS011;27616;51.420;6.788;2022-11-25T05:53:47;13.13;;;3.37;;
41927;SDS011;27616;51.420;6.788;2022-11-25T05:56:45;14.75;;;3.20;;
41927;SDS011;27616;51.420;6.788;2022-11-25T05:59:30;17.13;;;3.57;;
41927;SDS011;27616;51.420;6.788;2022-11-25T06:02:03;15.87;;;3.70;;
41927;SDS011;27616;51.420;6.788;2022-11-25T06:04:29;14.23;;;3.40;;
41927;SDS011;27616;51.420;6.788;2022-11-25T06:06:55;18.50;;;4.53;;
41927;SDS011;27616;51.420;6.788;2022-11-25T06:09:21;14.67;;;3.90;;
41927;SDS011;27616;51.420;6.788;2022-11-25T06:11:48;17.30;;;3.47;;
41927;SDS011;27616;51.420;6.788;2022-11-25T06:14:14;16.07;;;3.87;;
41927;SDS011;27616;51.420;6.788;2022-11-25T06:16:42;19.08;;;4.22;;
41927;SDS011;27616;51.420;6.788;2022-11-25T06:19:19;15.27;;;3.83;;
41927;SDS011;27616;51.420;6.788;2022-11-25T06:21:45;15.77;;;3.97;;
41927;SDS011;27616;51.420;6.788;2022-11-25T06:24:12;18.77;;;3.73;;
41927;SDS011;27616;51.420;6.788;2022-11-25T06:26:40;20.25;;;4.63;;
41927;SDS011;27616;51.420;6.788;2022-11-25T06:29:06;18.77;;;3.97;;
41927;SDS011;27616;51.420;6.788;2022-11-25T06:31:32;15.50;;;4.20;;
41927;SDS011;27616;51.420;6.788;2022-11-25T06:34:13;17.77;;;4.23;;
41927;SDS011;27616;51.420;6.788;2022-11-25T06:36:39;12.30;;;4.13;;
41927;SDS011;27616;51.420;6.788;2022-11-25T06:39:05;16.63;;;4.93;;
41927;SDS011;27616;51.420;6.788;2022-11-25T06:41:31;14.53;;;4.13;;
41927;SDS011;27616;51.420;6.788;2022-11-25T06:43:57;17.97;;;3.93;;
41927;SDS011;27616;51.420;6.788;2022-11-25T06:46:22;19.27;;;4.40;;
41927;SDS011;27616;51.420;6.788;2022-11-25T06:48:48;19.60;;;4.47;;
41927;SDS011;27616;51.420;6.788;2022-11-25T06:51:14;15.83;;;4.37;;
41927;SDS011;27616;51.420;6.788;2022-11-25T06:53:40;17.97;;;4.13;;
41927;SDS011;27616;51.420;6.788;2022-11-25T06:58:35;19.53;;;4.83;;
41927;SDS011;27616;51.420;6.788;2022-11-25T07:01:02;21.83;;;3.77;;
41927;SDS011;27616;51.420;6.788;2022-11-25T07:03:29;15.77;;;4.40;;
41927;SDS011;27616;51.420;6.788;2022-11-25T07:05:56;19.37;;;4.90;;
41927;SDS011;27616;51.420;6.788;2022-11-25T07:08:22;19.20;;;4.43;;
41927;SDS011;27616;51.420;6.788;2022-11-25T07:10:49;17.93;;;4.83;;
41927;SDS011;27616;51.420;6.788;2022-11-25T07:13:15;18.23;;;4.33;;
41927;SDS011;27616;51.420;6.788;2022-11-25T07:15:40;14.93;;;4.50;;
41927;SDS011;27616;51.420;6.788;2022-11-25T07:18:06;16.40;;;4.73;;
41927;SDS011;27616;51.420;6.788;2022-11-25T07:20:32;14.03;;;4.57;;
41927;SDS011;27616;51.420;6.788;2022-11-25T07:22:58;18.73;;;5.33;;
41927;SDS011;27616;51.420;6.788;2022-11-25T07:25:23;22.67;;;4.93;;
41927;SDS011;27616;51.420;6.788;2022-11-25T07:27:49;17.50;;;4.20;;
41927;SDS011;27616;51.420;6.788;2022-11-25T07:30:15;19.50;;;4.63;;
41927;SDS011;27616;51.420;6.788;2022-11-25T07:32:41;16.57;;;4.10;;
41927;SDS011;27616;51.420;6.788;2022-11-25T07:35:06;18.90;;;4.20;;
41927;SDS011;27616;51.420;6.788;2022-11-25T07:37:32;16.40;;;4.33;;
41927;SDS011;27616;51.420;6.788;2022-11-25T07:39:58;13.50;;;4.00;;
41927;SDS011;27616;51.420;6.788;2022-11-25T07:42:23;18.23;;;4.37;;
41927;SDS011;27616;51.420;6.788;2022-11-25T07:44:49;18.07;;;4.77;;
41927;SDS011;27616;51.420;6.788;2022-11-25T07:47:34;20.60;;;4.90;;
41927;SDS011;27616;51.420;6.788;2022-11-25T07:49:59;13.63;;;4.03;;
41927;SDS011;27616;51.420;6.788;2022-11-25T07:52:25;21.07;;;4.53;;
41927;SDS011;27616;51.420;6.788;2022-11-25T07:54:51;17.17;;;4.70;;
41927;SDS011;27616;51.420;6.788;2022-11-25T07:57:17;22.33;;;5.23;;
41927;SDS011;27616;51.420;6.788;2022-11-25T07:59:43;19.63;;;4.43;;
41927;SDS011;27616;51.420;6.788;2022-11-25T08:02:09;14.97;;;4.67;;
41927;SDS011;27616;51.420;6.788;2022-11-25T08:04:35;18.83;;;6.37;;
41927;SDS011;27616;51.420;6.788;2022-11-25T08:07:01;17.17;;;6.20;;
41927;SDS011;27616;51.420;6.788;2022-11-25T08:09:27;18.40;;;3.97;;
41927;SDS011;27616;51.420;6.788;2022-11-25T08:11:53;13.40;;;4.33;;
41927;SDS011;27616;51.420;6.788;2022-11-25T08:14:18;14.20;;;4.10;;
41927;SDS011;27616;51.420;6.788;2022-11-25T08:16:45;16.47;;;4.20;;
41927;SDS011;27616;51.420;6.788;2022-11-25T08:19:12;14.27;;;4.37;;
41927;SDS011;27616;51.420;6.788;2022-11-25T08:21:39;13.97;;;4.07;;
41927;SDS011;27616;51.420;6.788;2022-11-25T08:24:05;16.90;;;4.33;;
41927;SDS011;27616;51.420;6.788;2022-11-25T08:26:32;13.83;;;3.90;;
41927;SDS011;27616;51.420;6.788;2022-11-25T08:29:02;18.37;;;4.67;;
41927;SDS011;27616;51.420;6.788;2022-11-25T08:31:29;17.23;;;4.97;;
41927;SDS011;27616;51.420;6.788;2022-11-25T08:33:57;14.53;;;4.00;;
41927;SDS011;27616;51.420;6.788;2022-11-25T08:36:24;19.37;;;4.60;;
41927;SDS011;27616;51.420;6.788;2022-11-25T08:38:52;14.83;;;4.33;;
41927;SDS011;27616;51.420;6.788;2022-11-25T08:41:23;16.33;;;4.67;;
41927;SDS011;27616;51.420;6.788;2022-11-25T08:43:54;15.17;;;4.20;;
41927;SDS011;27616;51.420;6.788;2022-11-25T08:46:22;15.43;;;5.00;;
41927;SDS011;27616;51.420;6.788;2022-11-25T08:48:50;16.50;;;5.50;;
41927;SDS011;27616;51.420;6.788;2022-11-25T08:51:20;19.27;;;4.80;;
41927;SDS011;27616;51.420;6.788;2022-11-25T08:53:48;16.70;;;5.00;;
41927;SDS011;27616;51.420;6.788;2022-11-25T08:56:15;22.30;;;6.23;;
41927;SDS011;27616;51.420;6.788;2022-11-25T08:58:41;20.43;;;6.03;;
41927;SDS011;27616;51.420;6.788;2022-11-25T09:01:07;18.67;;;5.60;;
41927;SDS011;27616;51.420;6.788;2022-11-25T09:03:35;10.63;;;4.67;;
41927;SDS011;27616;51.420;6.788;2022-11-25T09:06:06;17.23;;;4.80;;
41927;SDS011;27616;51.420;6.788;2022-11-25T09:08:32;18.05;;;5.03;;
41927;SDS011;27616;51.420;6.788;2022-11-25T09:10:59;13.27;;;4.07;;
41927;SDS011;27616;51.420;6.788;2022-11-25T09:13:25;13.43;;;3.90;;
41927;SDS011;27616;51.420;6.788;2022-11-25T09:15:50;17.27;;;3.87;;
41927;SDS011;27616;51.420;6.788;2022-11-25T09:18:16;15.40;;;4.20;;
41927;SDS011;27616;51.420;6.788;2022-11-25T09:20:44;13.10;;;4.30;;
41927;SDS011;27616;51.420;6.788;2022-11-25T09:23:11;12.67;;;3.80;;
41927;SDS011;27616;51.420;6.788;2022-11-25T09:25:37;12.90;;;3.80;;
41927;SDS011;27616;51.420;6.788;2022-11-25T09:28:03;13.43;;;3.33;;
41927;SDS011;27616;51.420;6.788;2022-11-25T09:30:29;14.63;;;3.60;;
41927;SDS011;27616;51.420;6.788;2022-11-25T09:32:55;13.77;;;4.03;;
41927;SDS011;27616;51.420;6.788;2022-11-25T09:35:22;12.80;;;3.70;;
41927;SDS011;27616;51.420;6.788;2022-11-25T09:37:49;12.87;;;3.70;;
41927;SDS011;27616;51.420;6.788;2022-11-25T09:41:02;10.77;;;3.23;;
41927;SDS011;27616;51.420;6.788;2022-11-25T09:43:18;12.70;;;3.97;;
41927;SDS011;27616;51.420;6.788;2022-11-25T09:46:37;10.17;;;3.33;;
41927;SDS011;27616;51.420;6.788;2022-11-25T09:52:35;12.47;;;2.70;;
41927;SDS011;27616;51.420;6.788;2022-11-25T10:00:47;12.10;;;3.23;;
41927;SDS011;27616;51.420;6.788;2022-11-25T10:05:45;11.30;;;3.00;;
41927;SDS011;27616;51.420;6.788;2022-11-25T10:08:18;9.90;;;3.13;;
41927;SDS011;27616;51.420;6.788;2022-11-25T10:10:49;12.17;;;3.23;;
41927;SDS011;27616;51.420;6.788;2022-11-25T10:13:30;11.80;;;2.80;;
41927;SDS011;27616;51.420;6.788;2022-11-25T10:19:02;11.93;;;3.33;;
41927;SDS011;27616;51.420;6.788;2022-11-25T10:21:37;8.45;;;2.80;;
41927;SDS011;27616;51.420;6.788;2022-11-25T10:24:04;12.30;;;3.00;;
41927;SDS011;27616;51.420;6.788;2022-11-25T10:26:34;11.30;;;3.13;;
41927;SDS011;27616;51.420;6.788;2022-11-25T10:29:21;13.23;;;3.25;;
41927;SDS011;27616;51.420;6.788;2022-11-25T10:31:50;9.75;;;3.17;;
41927;SDS011;27616;51.420;6.788;2022-11-25T10:34:36;10.93;;;3.17;;
41927;SDS011;27616;51.420;6.788;2022-11-25T10:37:12;10.27;;;2.75;;
41927;SDS011;27616;51.420;6.788;2022-11-25T10:39:45;10.73;;;3.15;;
41927;SDS011;27616;51.420;6.788;2022-11-25T10:42:13;11.18;;;2.83;;
41927;SDS011;27616;51.420;6.788;2022-11-25T10:44:42;12.32;;;3.13;;
41927;SDS011;27616;51.420;6.788;2022-11-25T10:52:33;12.55;;;2.85;;
41927;SDS011;27616;51.420;6.788;2022-11-25T10:55:20;15.80;;;3.20;;
41927;SDS011;27616;51.420;6.788;2022-11-25T10:57:57;10.97;;;3.27;;
41927;SDS011;27616;51.420;6.788;2022-11-25T11:03:14;13.03;;;3.57;;
41927;SDS011;27616;51.420;6.788;2022-11-25T11:05:51;13.13;;;3.00;;
41927;SDS011;27616;51.420;6.788;2022-11-25T11:08:24;12.93;;;3.50;;
41927;SDS011;27616;51.420;6.788;2022-11-25T11:13:58;21.83;;;5.68;;
41927;SDS011;27616;51.420;6.788;2022-11-25T11:16:42;18.67;;;4.30;;
41927;SDS011;27616;51.420;6.788;2022-11-25T11:19:20;16.27;;;3.10;;
41927;SDS011;27616;51.420;6.788;2022-11-25T11:21:48;15.60;;;3.10;;
41927;SDS011;27616;51.420;6.788;2022-11-25T11:24:28;12.83;;;2.83;;
41927;SDS011;27616;51.420;6.788;2022-11-25T11:27:18;17.02;;;3.35;;
41927;SDS011;27616;51.420;6.788;2022-11-25T11:29:46;8.15;;;2.30;;
41927;SDS011;27616;51.420;6.788;2022-11-25T11:32:21;11.70;;;2.97;;
41927;SDS011;27616;51.420;6.788;2022-11-25T11:37:43;12.68;;;3.42;;
41927;SDS011;27616;51.420;6.788;2022-11-25T11:48:03;13.10;;;3.30;;
41927;SDS011;27616;51.420;6.788;2022-11-25T11:50:37;15.68;;;3.33;;
41927;SDS011;27616;51.420;6.788;2022-11-25T11:56:17;15.80;;;2.65;;
41927;SDS011;27616;51.420;6.788;2022-11-25T11:58:58;13.88;;;2.90;;
41927;SDS011;27616;51.420;6.788;2022-11-25T12:06:50;11.70;;;2.28;;
41927;SDS011;27616;51.420;6.788;2022-11-25T12:09:24;17.63;;;3.80;;
41927;SDS011;27616;51.420;6.788;2022-11-25T12:17:19;13.70;;;2.90;;
41927;SDS011;27616;51.420;6.788;2022-11-25T12:19:54;13.65;;;2.58;;
41927;SDS011;27616;51.420;6.788;2022-11-25T12:25:12;16.15;;;2.78;;
41927;SDS011;27616;51.420;6.788;2022-11-25T12:27:52;13.40;;;3.45;;
41927;SDS011;27616;51.420;6.788;2022-11-25T12:30:33;14.93;;;2.67;;
41927;SDS011;27616;51.420;6.788;2022-11-25T12:34:04;11.07;;;2.70;;
41927;SDS011;27616;51.420;6.788;2022-11-25T12:38:37;9.82;;;2.63;;
41927;SDS011;27616;51.420;6.788;2022-11-25T12:41:22;10.75;;;3.05;;
41927;SDS011;27616;51.420;6.788;2022-11-25T12:44:10;10.27;;;2.25;;
41927;SDS011;27616;51.420;6.788;2022-11-25T12:46:43;11.15;;;2.30;;
41927;SDS011;27616;51.420;6.788;2022-11-25T12:49:17;14.80;;;2.55;;
41927;SDS011;27616;51.420;6.788;2022-11-25T12:55:01;11.80;;;2.40;;
41927;SDS011;27616;51.420;6.788;2022-11-25T13:00:39;12.13;;;2.53;;
41927;SDS011;27616;51.420;6.788;2022-11-25T13:06:15;9.75;;;2.30;;
41927;SDS011;27616;51.420;6.788;2022-11-25T13:09:10;11.45;;;2.20;;
41927;SDS011;27616;51.420;6.788;2022-11-25T13:14:29;17.33;;;5.45;;
41927;SDS011;27616;51.420;6.788;2022-11-25T13:17:11;12.43;;;2.58;;
41927;SDS011;27616;51.420;6.788;2022-11-25T13:19:39;11.68;;;3.15;;
41927;SDS011;27616;51.420;6.788;2022-11-25T13:22:05;11.20;;;2.65;;
41927;SDS011;27616;51.420;6.788;2022-11-25T13:24:54;12.65;;;2.50;;
41927;SDS011;27616;51.420;6.788;2022-11-25T13:27:28;13.20;;;2.72;;
41927;SDS011;27616;51.420;6.788;2022-11-25T13:29:55;12.82;;;2.70;;
41927;SDS011;27616;51.420;6.788;2022-11-25T13:37:46;11.77;;;2.58;;
41927;SDS011;27616;51.420;6.788;2022-11-25T13:42:47;13.90;;;2.60;;
41927;SDS011;27616;51.420;6.788;2022-11-25T13:45:27;12.30;;;2.67;;
41927;SDS011;27616;51.420;6.788;2022-11-25T13:50:45;11.13;;;2.78;;
41927;SDS011;27616;51.420;6.788;2022-11-25T13:56:13;13.90;;;2.90;;
41927;SDS011;27616;51.420;6.788;2022-11-25T13:59:17;14.35;;;3.03;;
41927;SDS011;27616;51.420;6.788;2022-11-25T14:04:11;11.35;;;2.50;;
41927;SDS011;27616;51.420;6.788;2022-11-25T14:25:50;11.50;;;2.10;;
41927;SDS011;27616;51.420;6.788;2022-11-25T14:28:26;10.23;;;2.42;;
41927;SDS011;27616;51.420;6.788;2022-11-25T14:31:02;11.60;;;2.87;;
41927;SDS011;27616;51.420;6.788;2022-11-25T14:33:33;9.65;;;2.28;;
41927;SDS011;27616;51.420;6.788;2022-11-25T14:36:08;10.43;;;2.07;;
41927;SDS011;27616;51.420;6.788;2022-11-25T14:38:43;14.57;;;2.73;;
41927;SDS011;27616;51.420;6.788;2022-11-25T14:41:18;14.93;;;2.70;;
41927;SDS011;27616;51.420;6.788;2022-11-25T14:43:51;11.73;;;2.30;;
41927;SDS011;27616;51.420;6.788;2022-11-25T14:46:22;11.20;;;2.70;;
41927;SDS011;27616;51.420;6.788;2022-11-25T14:48:53;8.97;;;2.17;;
41927;SDS011;27616;51.420;6.788;2022-11-25T14:51:20;12.47;;;2.60;;
41927;SDS011;27616;51.420;6.788;2022-11-25T14:53:48;14.40;;;2.77;;
41927;SDS011;27616;51.420;6.788;2022-11-25T14:56:16;12.33;;;2.90;;
41927;SDS011;27616;51.420;6.788;2022-11-25T14:58:49;9.30;;;2.93;;
41927;SDS011;27616;51.420;6.788;2022-11-25T15:01:26;9.33;;;2.63;;
41927;SDS011;27616;51.420;6.788;2022-11-25T15:04:30;13.47;;;2.60;;
41927;SDS011;27616;51.420;6.788;2022-11-25T15:06:48;12.40;;;2.50;;
41927;SDS011;27616;51.420;6.788;2022-11-25T15:11:47;10.10;;;2.50;;
41927;SDS011;27616;51.420;6.788;2022-11-25T15:14:34;11.27;;;2.67;;
41927;SDS011;27616;51.420;6.788;2022-11-25T15:17:22;15.20;;;3.00;;
41927;SDS011;27616;51.420;6.788;2022-11-25T15:20:03;14.38;;;2.67;;
41927;SDS011;27616;51.420;6.788;2022-11-25T15:22:48;9.73;;;2.50;;
41927;SDS011;27616;51.420;6.788;2022-11-25T15:25:15;14.20;;;2.90;;
41927;SDS011;27616;51.420;6.788;2022-11-25T15:30:23;10.60;;;2.73;;
41927;SDS011;27616;51.420;6.788;2022-11-25T15:32:51;14.13;;;2.43;;
41927;SDS011;27616;51.420;6.788;2022-11-25T15:35:22;10.00;;;2.30;;
41927;SDS011;27616;51.420;6.788;2022-11-25T15:37:49;10.70;;;2.63;;
41927;SDS011;27616;51.420;6.788;2022-11-25T15:42:57;13.70;;;3.03;;
41927;SDS011;27616;51.420;6.788;2022-11-25T15:45:24;10.40;;;2.40;;
41927;SDS011;27616;51.420;6.788;2022-11-25T15:47:55;12.40;;;2.40;;
41927;SDS011;27616;51.420;6.788;2022-11-25T15:50:22;15.97;;;3.30;;
41927;SDS011;27616;51.420;6.788;2022-11-25T15:52:53;10.47;;;2.47;;
41927;SDS011;27616;51.420;6.788;2022-11-25T15:55:31;11.10;;;2.67;;
41927;SDS011;27616;51.420;6.788;2022-11-25T15:58:03;10.30;;;2.10;;
41927;SDS011;27616;51.420;6.788;2022-11-25T16:00:41;11.73;;;2.83;;
41927;SDS011;27616;51.420;6.788;2022-11-25T16:03:31;10.13;;;2.77;;
41927;SDS011;27616;51.420;6.788;2022-11-25T16:05:58;11.13;;;2.90;;
41927;SDS011;27616;51.420;6.788;2022-11-25T16:08:32;11.03;;;2.63;;
41927;SDS011;27616;51.420;6.788;2022-11-25T16:13:40;10.37;;;2.30;;
41927;SDS011;27616;51.420;6.788;2022-11-25T16:18:37;10.17;;;2.30;;
41927;SDS011;27616;51.420;6.788;2022-11-25T16:21:23;11.07;;;2.67;;
41927;SDS011;27616;51.420;6.788;2022-11-25T16:24:35;13.07;;;2.30;;
41927;SDS011;27616;51.420;6.788;2022-11-25T16:26:50;10.07;;;2.57;;
41927;SDS011;27616;51.420;6.788;2022-11-25T16:29:36;12.73;;;2.83;;
41927;SDS011;27616;51.420;6.788;2022-11-25T16:32:11;10.88;;;2.90;;
41927;SDS011;27616;51.420;6.788;2022-11-25T16:34:39;9.33;;;2.37;;
41927;SDS011;27616;51.420;6.788;2022-11-25T16:37:05;9.20;;;2.60;;
41927;SDS011;27616;51.420;6.788;2022-11-25T16:39:31;14.10;;;2.77;;
41927;SDS011;27616;51.420;6.788;2022-11-25T16:41:57;16.20;;;2.80;;
41927;SDS011;27616;51.420;6.788;2022-11-25T16:44:29;11.40;;;2.63;;
41927;SDS011;27616;51.420;6.788;2022-11-25T16:46:56;12.03;;;3.00;;
41927;SDS011;27616;51.420;6.788;2022-11-25T16:49:22;12.30;;;3.57;;
41927;SDS011;27616;51.420;6.788;2022-11-25T16:51:49;11.03;;;3.43;;
41927;SDS011;27616;51.420;6.788;2022-11-25T16:54:17;7.07;;;2.37;;
41927;SDS011;27616;51.420;6.788;2022-11-25T16:56:45;11.03;;;3.63;;
41927;SDS011;27616;51.420;6.788;2022-11-25T16:59:28;13.13;;;2.83;;
41927;SDS011;27616;51.420;6.788;2022-11-25T17:02:15;11.33;;;3.33;;
41927;SDS011;27616;51.420;6.788;2022-11-25T17:04:42;12.40;;;2.80;;
41927;SDS011;27616;51.420;6.788;2022-11-25T17:07:12;13.63;;;3.30;;
41927;SDS011;27616;51.420;6.788;2022-11-25T17:09:39;10.63;;;2.97;;
41927;SDS011;27616;51.420;6.788;2022-11-25T17:12:06;14.67;;;3.70;;
41927;SDS011;27616;51.420;6.788;2022-11-25T17:14:42;16.00;;;3.53;;